Fairford, United Kingdom
Current Conditions -  °F | °C
As of 12:58 PM on Friday 19 Dec 2014 (Local Time) from EGVA Reporting Station
Broken Clouds Broken Clouds  
Wind Chill: 41°   Ceiling: 4300
Heat Index: 47°   Visibility: 6mi
Dew Point: 38°   Wind: 17mph
Humidity: 69%   Direction: 270°W
Pressure: 30.02"   Gusts: NA
Location:  51.71°N, 1.78°W
Report Text: EGVA 191258Z AUTO 27015KT 9999 BKN043 09/03 A3002 RMK AO2 SLP170 T00860032
Loading
Personal Weather Stations






























Interactive Weather Map New forecast layout! Learn more

10-Day Weather Forecast

Advertisements
Track Severe Weather on mobile